Details From FIMP - Sir Seewoosagur Ramgoolam Intl
To FMMI - Ivato
Flight Number -
Tags Decoded
Created
Modified
Stats Distance 776 nm / 1,438 km
Max Altitude 0 ft / 0 m
Waypoints 6
Social Downloads 1
Likes 0
Share VATSIM

Download

Looking for another format? Having issues loading an existing format? Contact us
Advertisement - Login to hide

Notes

Decoded

Route

FIMP FMEE FMEP FMMT FMMS FMMI

ID Type Via Altitude Latitude Longitude Leg Dist Tot Dist Heading (true) Name
O FIMP APT - 0 ft / 0 m -20.42332˚ 57.66925˚ - 0 nm - -
FMEE APT - 0 ft / 0 m -20.88418˚ 55.50412˚ 124 nm 124 nm 257° / 258° -
FMEP APT - 0 ft / 0 m -21.31476˚ 55.41658˚ 26 nm 151 nm 191° / 191° -
FMMT APT - 0 ft / 0 m -18.11942˚ 49.39365˚ 390 nm 541 nm 298° / 300° -
FMMS APT - 0 ft / 0 m -17.09898˚ 49.81671˚ 65 nm 607 nm 22° / 21° -
O FMMI APT - 0 ft / 0 m -18.79479˚ 47.46427˚ 168 nm 776 nm 232° / 233° -

Altitude Profile

Advertisement - Login to hide

Weather


0- 5 10 15 20 25 30 35+ Temperature / ° C

Clouds and Precipitation
Forecast for 2017-12-18 18:00 UTC. Updated an hour ago

Ground ~20,000 ft ~40,000 ft Winds

FIMP

Details ICAO FIMP (MRU)
Name SIR SEEWOOSAGUR RAMGOOLAM INTL
Region Mauritius
Timezone Indian/Mauritius (UTC+4.0)
Stats Elevation 186 ft / 57 m (AMSL)
Location -20.430235° 57.683602°
Runways 1
Magnetic Variation 18.412° W

METAR

FIMP 181600Z 11005KT 9999 FEW016 BKN250 27/22 Q1018

Decode

TAF

TAF FIMP 181115Z 1812/1918 11010KT 9999 SCT018=

Decode

Departure Runways

ID Width Length Bearing (true) Bearing (mag) Surface Threshold Offset Overrun Length
14 148 ft / 45 m 11,037 ft / 3,364 m 117.22° 135.63° Asphalt 1,082 ft / 330 m 200 ft / 61 m
32 148 ft / 45 m 11,037 ft / 3,364 m 297.21° 315.62° Asphalt 0 ft / 0 m 0 ft / 0 m

FMMI

Details ICAO FMMI (TNR)
Name IVATO
Region Comoros, Mayotte, Réunion and Madagascar
Timezone Indian/Antananarivo (UTC+3.0)
Stats Elevation 4,198 ft / 1,280 m (AMSL)
Location -18.796950° 47.478806°
Runways 1
Magnetic Variation 15.161° W

METAR

FMMI 181630Z 09007KT 9999 FEW017CB SCT020 21/17 Q1020 NOSIG

Decode

TAF

TAF FMMI 181100Z 1812/1918 12008KT 9999 FEW017 SCT020 PROB30 TEMPO 1815/1820 TSRA BKN015CB

Decode

Destination Runways

ID Width Length Bearing (true) Bearing (mag) Surface Threshold Offset Overrun Length
11 148 ft / 45 m 10,167 ft / 3,099 m 98.92° 114.08° Asphalt 0 ft / 0 m 90 ft / 27 m
29 148 ft / 45 m 10,167 ft / 3,099 m 278.91° 294.07° Asphalt 0 ft / 0 m 90 ft / 27 m

Approach Navaids

Runway Type Ident Frequency Range Bearing (true) Bearing (mag) Slope Elevation
11 Localiser IO 109.50 MHz 18 nm / 33 km 98.89° 114.05° - 4,125 ft / 1,257 m (AMSL)
11 Glidescope IO 109.50 MHz 10 nm / 19 km 98.91° 114.07° 3.00° 4,198 ft / 1,280 m (AMSL)

Popular Alternatives